Time;durP1;ratioP1;P1;durP2;ratioP2;P2;SDS_P1;SDS_P2;PMS_P1;PMS_P2;Temp;Humidity;BMP_temperature;BMP_pressure;BME280_temperature;BME280_humidity;BME280_pressure;Samples;Min_cycle;Max_cycle;Signal;HPM_P1;HPM_P2
2023/06/10 00:03:57;;;;;;;9.98;6.28;;;18.90;99.90;;;;;;7350672;32;20234;-55
2023/06/10 00:07:59;;;;;;;7.00;6.30;;;18.90;99.90;;;;;;7349856;32;20127;-55
2023/06/10 00:12:01;;;;;;;8.35;6.68;;;18.90;99.90;;;;;;7345815;32;20437;-55
2023/06/10 00:16:03;;;;;;;9.65;5.97;;;18.80;99.90;;;;;;7355292;32;20108;-55
2023/06/10 00:20:11;;;;;;;8.27;6.65;;;18.80;99.90;;;;;;7351350;32;20496;-55
2023/06/10 00:24:13;;;;;;;8.32;6.68;;;18.80;99.90;;;;;;7353645;32;20537;-55
2023/06/10 00:28:15;;;;;;;8.68;6.78;;;18.70;99.90;;;;;;7339789;32;20238;-55
2023/06/10 00:32:17;;;;;;;9.05;6.22;;;18.80;99.90;;;;;;7342819;32;20186;-55
2023/06/10 00:36:19;;;;;;;9.95;6.62;;;18.80;99.90;;;;;;7348815;32;20134;-56
2023/06/10 00:40:21;;;;;;;8.60;6.68;;;18.80;99.90;;;;;;7343104;32;20491;-55
2023/06/10 00:44:22;;;;;;;9.43;7.20;;;18.70;99.90;;;;;;7346878;32;20156;-55
2023/06/10 00:48:25;;;;;;;7.78;6.95;;;18.60;99.90;;;;;;7341972;32;20115;-55
2023/06/10 00:52:29;;;;;;;8.48;7.07;;;18.40;99.90;;;;;;7346121;32;20107;-55
2023/06/10 00:56:34;;;;;;;8.45;7.53;;;18.10;99.90;;;;;;7350001;32;20122;-56
2023/06/10 01:00:36;;;;;;;11.65;7.37;;;18.00;99.90;;;;;;7343560;32;20257;-55
2023/06/10 01:04:38;;;;;;;9.25;7.35;;;17.90;99.90;;;;;;7336568;32;20119;-56
2023/06/10 01:08:50;;;;;;;8.48;7.25;;;17.70;99.90;;;;;;7345996;32;20516;-55
2023/06/10 01:13:02;;;;;;;10.27;7.97;;;17.60;99.90;;;;;;7351564;32;20466;-56
2023/06/10 01:17:04;;;;;;;8.75;7.95;;;17.50;99.90;;;;;;7342673;32;20103;-56
2023/06/10 01:21:07;;;;;;;8.50;7.32;;;17.40;99.90;;;;;;7353087;32;20613;-55
2023/06/10 01:25:09;;;;;;;8.52;6.78;;;17.30;99.90;;;;;;7343652;32;20536;-56
2023/06/10 01:29:19;;;;;;;8.85;7.37;;;17.40;99.90;;;;;;7347322;32;20112;-55
2023/06/10 01:33:31;;;;;;;10.50;8.07;;;17.40;99.90;;;;;;7345384;32;20578;-55
2023/06/10 01:37:33;;;;;;;11.75;7.85;;;17.50;99.90;;;;;;7349475;32;20187;-56
2023/06/10 01:41:37;;;;;;;8.75;7.50;;;17.40;99.90;;;;;;7345278;32;20257;-56
2023/06/10 01:45:39;;;;;;;9.82;7.87;;;17.20;99.90;;;;;;7351964;32;20135;-56
2023/06/10 01:49:40;;;;;;;11.93;7.72;;;17.20;99.90;;;;;;7351282;32;20464;-56
2023/06/10 01:53:42;;;;;;;9.10;7.47;;;17.20;99.90;;;;;;7345719;32;20744;-56
2023/06/10 01:57:44;;;;;;;11.57;7.57;;;17.30;99.90;;;;;;7348480;32;20751;-55
2023/06/10 02:01:46;;;;;;;11.32;7.75;;;17.20;99.90;;;;;;7344787;32;20404;-55
2023/06/10 02:05:47;;;;;;;8.07;7.15;;;17.30;99.90;;;;;;7354259;32;20546;-55
2023/06/10 02:09:49;;;;;;;8.30;7.50;;;17.30;99.90;;;;;;7348734;32;20167;-55
2023/06/10 02:13:51;;;;;;;8.73;7.35;;;17.30;99.90;;;;;;7346663;32;20337;-55
2023/06/10 02:17:54;;;;;;;13.88;7.57;;;17.30;99.90;;;;;;7354439;32;20103;-54
2023/06/10 02:21:56;;;;;;;8.40;7.50;;;17.30;99.90;;;;;;7356767;32;20208;-56
2023/06/10 02:25:58;;;;;;;8.13;6.70;;;17.20;99.90;;;;;;7358141;32;20175;-57
2023/06/10 02:30:00;;;;;;;8.70;7.22;;;17.20;99.90;;;;;;7351226;32;20107;-56
2023/06/10 02:34:02;;;;;;;9.43;7.85;;;17.10;99.90;;;;;;7350728;32;20149;-56
2023/06/10 02:38:04;;;;;;;11.70;8.50;;;17.10;99.90;;;;;;7355602;32;20145;-54
2023/06/10 02:42:07;;;;;;;9.50;8.13;;;17.10;99.90;;;;;;7351998;32;20234;-55
2023/06/10 02:46:08;;;;;;;9.40;7.97;;;17.10;99.90;;;;;;7343285;32;20123;-55
2023/06/10 02:50:10;;;;;;;7.95;7.15;;;17.10;99.90;;;;;;7354663;32;20141;-56
2023/06/10 02:54:12;;;;;;;7.70;7.00;;;17.20;99.90;;;;;;7350030;32;20107;-56
2023/06/10 02:58:15;;;;;;;13.88;7.72;;;17.30;99.90;;;;;;7353112;32;20138;-56
2023/06/10 03:02:16;;;;;;;8.30;7.35;;;17.30;99.90;;;;;;7358145;32;20214;-55
2023/06/10 03:06:18;;;;;;;9.15;7.65;;;17.20;99.90;;;;;;7351784;32;20460;-55
2023/06/10 03:10:20;;;;;;;9.25;7.78;;;17.30;99.90;;;;;;7357359;32;20137;-55
2023/06/10 03:14:22;;;;;;;8.63;7.28;;;17.20;99.90;;;;;;7355874;32;20146;-56
2023/06/10 03:18:27;;;;;;;10.77;7.00;;;17.10;99.90;;;;;;7351812;32;20504;-55
2023/06/10 03:22:30;;;;;;;7.57;6.87;;;17.10;99.90;;;;;;7358126;32;20182;-56
2023/06/10 03:26:32;;;;;;;10.45;7.22;;;16.90;99.90;;;;;;7349240;32;20239;-55
2023/06/10 03:30:33;;;;;;;8.57;7.37;;;16.90;99.90;;;;;;7355180;32;20095;-56
2023/06/10 03:34:35;;;;;;;8.32;7.53;;;16.80;99.90;;;;;;7351030;32;20107;-56
2023/06/10 03:38:37;;;;;;;9.30;8.18;;;16.50;99.90;;;;;;7356561;32;20115;-56
2023/06/10 03:42:39;;;;;;;8.60;7.80;;;16.20;99.90;;;;;;7357051;32;20107;-55
2023/06/10 03:46:41;;;;;;;8.90;8.00;;;16.10;99.90;;;;;;7356919;32;20167;-56
2023/06/10 03:50:43;;;;;;;11.07;8.00;;;15.90;99.90;;;;;;7354605;32;20504;-56
2023/06/10 03:54:45;;;;;;;10.75;8.63;;;15.90;99.90;;;;;;7357422;32;20403;-55
2023/06/10 03:58:46;;;;;;;10.52;8.45;;;15.70;99.90;;;;;;7355394;32;20292;-56
2023/06/10 04:02:51;;;;;;;10.02;8.18;;;15.60;99.90;;;;;;7348526;32;20169;-56
2023/06/10 04:06:53;;;;;;;9.27;8.38;;;15.60;99.90;;;;;;7353548;32;20521;-56
2023/06/10 04:10:55;;;;;;;9.65;8.57;;;15.60;99.90;;;;;;7349600;32;20545;-56
2023/06/10 04:14:56;;;;;;;10.18;8.93;;;15.50;99.90;;;;;;7356086;32;20209;-56
2023/06/10 04:19:00;;;;;;;10.25;8.93;;;15.50;99.90;;;;;;7356184;32;20178;-56
2023/06/10 04:23:02;;;;;;;9.50;8.70;;;15.40;99.90;;;;;;7354996;32;20107;-56
2023/06/10 04:27:04;;;;;;;9.52;8.57;;;15.40;99.90;;;;;;7351014;32;20164;-56
2023/06/10 04:31:05;;;;;;;10.80;8.93;;;15.60;99.90;;;;;;7351770;32;20177;-55
2023/06/10 04:35:08;;;;;;;9.43;8.50;;;15.70;99.90;;;;;;7348575;32;20470;-55
2023/06/10 04:39:10;;;;;;;9.55;8.48;;;15.90;99.90;;;;;;7351505;32;20196;-56
2023/06/10 04:43:12;;;;;;;8.60;7.80;;;16.00;99.90;;;;;;7356537;32;20122;-56
2023/06/10 04:47:14;;;;;;;9.82;8.77;;;16.30;99.90;;;;;;7350938;32;20920;-56
2023/06/10 04:51:16;;;;;;;9.32;8.32;;;16.60;99.90;;;;;;7349085;32;20225;-56
2023/06/10 04:55:18;;;;;;;11.48;8.13;;;16.90;99.90;;;;;;7344762;32;20442;-56
2023/06/10 04:59:20;;;;;;;9.55;7.85;;;17.40;99.90;;;;;;7348018;32;20261;-56
2023/06/10 05:03:21;;;;;;;11.82;8.30;;;17.80;99.90;;;;;;7348572;32;20143;-56
2023/06/10 05:07:23;;;;;;;10.20;8.00;;;18.30;99.90;;;;;;7348217;32;20132;-56
2023/06/10 05:11:25;;;;;;;13.05;8.52;;;18.80;99.90;;;;;;7354839;32;20107;-57
2023/06/10 05:15:27;;;;;;;12.75;8.50;;;19.30;99.90;;;;;;7348573;32;20327;-56
2023/06/10 05:19:29;;;;;;;13.98;8.68;;;18.90;99.90;;;;;;7346476;32;20180;-57
2023/06/10 05:23:30;;;;;;;9.13;7.90;;;18.70;99.90;;;;;;7346726;32;20307;-56
2023/06/10 05:27:32;;;;;;;10.85;8.00;;;18.60;99.90;;;;;;7350379;32;20123;-57
2023/06/10 05:31:34;;;;;;;8.93;8.02;;;18.50;99.90;;;;;;7352329;32;20106;-57
2023/06/10 05:35:36;;;;;;;9.75;8.02;;;18.50;99.90;;;;;;7335810;32;20217;-57
2023/06/10 05:39:37;;;;;;;10.07;8.27;;;18.50;99.90;;;;;;7345845;32;20127;-56
2023/06/10 05:43:40;;;;;;;9.07;7.65;;;18.60;99.90;;;;;;7337825;32;20807;-60
2023/06/10 05:47:41;;;;;;;11.07;7.65;;;18.60;99.90;;;;;;7342880;32;20446;-58
2023/06/10 05:51:43;;;;;;;10.27;8.00;;;18.90;99.90;;;;;;7350362;32;20151;-59
2023/06/10 05:55:46;;;;;;;9.30;7.30;;;19.00;99.90;;;;;;7349778;32;20224;-59
2023/06/10 05:59:47;;;;;;;8.65;7.62;;;19.20;99.90;;;;;;7341241;32;20473;-59
2023/06/10 06:03:49;;;;;;;7.78;6.90;;;19.40;99.90;;;;;;7349782;32;20502;-59
2023/06/10 06:07:51;;;;;;;9.68;8.07;;;19.60;99.90;;;;;;7348020;32;20160;-59
2023/06/10 06:11:53;;;;;;;8.55;7.35;;;19.70;99.90;;;;;;7344910;32;20550;-59
2023/06/10 06:15:55;;;;;;;7.32;6.62;;;20.00;99.90;;;;;;7343346;32;20225;-59
2023/06/10 06:19:56;;;;;;;9.63;6.68;;;20.30;99.90;;;;;;7354421;32;20263;-59
2023/06/10 06:23:59;;;;;;;8.63;7.35;;;20.60;99.90;;;;;;7347559;32;20136;-59
2023/06/10 06:28:02;;;;;;;8.00;6.53;;;20.90;99.90;;;;;;7348721;32;20126;-59
2023/06/10 06:32:04;;;;;;;10.93;7.45;;;21.30;99.90;;;;;;7352111;32;20163;-59
2023/06/10 06:36:05;;;;;;;7.95;6.55;;;21.50;99.90;;;;;;7342838;32;20127;-59
2023/06/10 06:40:08;;;;;;;7.60;6.82;;;21.70;99.90;;;;;;7346427;32;20588;-59
2023/06/10 06:44:09;;;;;;;6.55;5.93;;;21.50;99.90;;;;;;7349794;32;20152;-57
2023/06/10 06:48:12;;;;;;;8.30;6.45;;;21.70;99.90;;;;;;7356160;32;20108;-59
2023/06/10 06:52:14;;;;;;;13.48;7.82;;;21.90;99.90;;;;;;7357807;32;20540;-58
2023/06/10 06:56:16;;;;;;;8.63;6.12;;;22.00;99.90;;;;;;7354281;32;20564;-56
2023/06/10 07:00:18;;;;;;;9.32;6.12;;;22.20;99.90;;;;;;7358108;32;20163;-58
2023/06/10 07:04:23;;;;;;;14.32;11.77;;;22.50;99.90;;;;;;7348215;32;20482;-59
2023/06/10 07:08:25;;;;;;;10.38;8.43;;;22.80;99.90;;;;;;7352002;32;20107;-57
2023/06/10 07:12:27;;;;;;;7.15;6.20;;;23.00;99.90;;;;;;7346895;32;20213;-56
2023/06/10 07:16:28;;;;;;;7.87;5.90;;;23.30;99.90;;;;;;7347594;32;20099;-57
2023/06/10 07:20:30;;;;;;;12.13;10.15;;;23.30;99.90;;;;;;7357683;32;20169;-58
2023/06/10 07:24:32;;;;;;;6.87;5.87;;;23.30;99.90;;;;;;7354060;32;20127;-55
2023/06/10 07:28:34;;;;;;;7.80;6.18;;;23.20;99.90;;;;;;7344845;32;20111;-55
2023/06/10 07:32:35;;;;;;;7.87;5.80;;;23.10;99.90;;;;;;7352604;32;20123;-56
2023/06/10 07:36:37;;;;;;;7.20;5.70;;;23.30;99.90;;;;;;7357934;32;20126;-59
2023/06/10 07:40:39;;;;;;;8.18;5.57;;;23.30;99.90;;;;;;7348748;32;20119;-57
2023/06/10 07:44:41;;;;;;;8.38;5.90;;;23.50;99.90;;;;;;7356188;32;20150;-57
2023/06/10 07:48:43;;;;;;;8.80;5.87;;;23.70;99.90;;;;;;7351306;32;20222;-57
2023/06/10 07:52:44;;;;;;;8.50;5.82;;;23.70;99.90;;;;;;7355886;32;20527;-58
2023/06/10 07:56:46;;;;;;;8.23;5.82;;;24.10;99.90;;;;;;7352764;32;20668;-55
2023/06/10 08:00:48;;;;;;;6.10;5.47;;;24.20;99.90;;;;;;7346887;32;20217;-57
2023/06/10 08:04:50;;;;;;;9.02;6.78;;;24.50;99.90;;;;;;7348178;32;20619;-58
2023/06/10 08:08:53;;;;;;;8.35;6.20;;;24.80;99.90;;;;;;7346542;32;20191;-55
2023/06/10 08:12:55;;;;;;;8.07;5.72;;;25.00;99.90;;;;;;7347390;32;20510;-57
2023/06/10 08:16:57;;;;;;;9.75;6.07;;;25.20;99.90;;;;;;7345876;32;20107;-58
2023/06/10 08:20:59;;;;;;;9.48;5.93;;;25.50;99.90;;;;;;7345498;32;20552;-58
2023/06/10 08:25:00;;;;;;;8.38;5.65;;;25.70;99.90;;;;;;7349224;32;20209;-57
2023/06/10 08:29:02;;;;;;;7.07;5.95;;;26.00;99.90;;;;;;7348177;32;20514;-56
2023/06/10 08:33:04;;;;;;;6.60;5.53;;;26.50;99.90;;;;;;7349026;32;20122;-56
2023/06/10 08:37:07;;;;;;;8.82;5.75;;;27.00;99.90;;;;;;7340733;32;20507;-56
2023/06/10 08:41:13;;;;;;;8.07;6.07;;;27.10;99.90;;;;;;7339887;32;20111;-56
2023/06/10 08:45:18;;;;;;;11.83;8.20;;;26.90;99.90;;;;;;7343686;32;20306;-59
2023/06/10 08:49:23;;;;;;;8.57;6.05;;;27.40;99.90;;;;;;7351701;32;20252;-59
2023/06/10 08:53:26;;;;;;;8.23;5.80;;;27.70;99.90;;;;;;7344230;32;20103;-59
2023/06/10 08:57:30;;;;;;;7.18;5.40;;;28.10;99.90;;;;;;7345326;32;20589;-59
2023/06/10 09:01:33;;;;;;;7.85;5.57;;;28.70;99.40;;;;;;7344493;32;20288;-57
2023/06/10 09:05:36;;;;;;;10.45;5.68;;;28.70;98.60;;;;;;7337934;32;20115;-60
2023/06/10 09:09:38;;;;;;;6.72;5.68;;;28.40;96.40;;;;;;7347284;32;20202;-58
2023/06/10 09:13:40;;;;;;;8.13;5.45;;;28.20;97.30;;;;;;7344877;32;20153;-59
2023/06/10 09:17:42;;;;;;;11.02;5.40;;;28.90;95.40;;;;;;7345336;32;20144;-58
2023/06/10 09:21:44;;;;;;;9.25;5.00;;;28.70;95.20;;;;;;7342559;32;20531;-58
2023/06/10 09:25:55;;;;;;;9.45;5.32;;;28.90;94.40;;;;;;7346600;32;20463;-58
2023/06/10 09:29:57;;;;;;;6.60;4.87;;;28.90;93.20;;;;;;7343785;32;20120;-57
2023/06/10 09:34:09;;;;;;;9.77;5.65;;;29.40;93.40;;;;;;7333846;32;20117;-59
2023/06/10 09:38:12;;;;;;;6.22;5.00;;;29.90;93.20;;;;;;7344242;32;20665;-58
2023/06/10 09:42:18;;;;;;;7.25;5.22;;;30.30;92.90;;;;;;7338142;32;20162;-58
2023/06/10 09:46:20;;;;;;;12.00;4.70;;;30.60;93.00;;;;;;7332429;32;20134;-58
2023/06/10 09:50:22;;;;;;;7.65;5.35;;;31.10;90.10;;;;;;7341640;32;20111;-58
2023/06/10 09:54:32;;;;;;;5.80;4.95;;;31.00;87.70;;;;;;7340484;32;20534;-57
2023/06/10 09:58:35;;;;;;;9.23;5.00;;;30.20;89.50;;;;;;7334302;32;20272;-59
2023/06/10 10:03:03;;;;;;;6.20;4.45;;;30.70;87.90;;;;;;7342926;32;20127;-58
2023/06/10 10:07:07;;;;;;;13.70;5.18;;;31.00;84.00;;;;;;7334009;32;20469;-59
2023/06/10 10:11:10;;;;;;;13.88;5.45;;;31.00;84.00;;;;;;7343084;32;20203;-59
2023/06/10 10:15:12;;;;;;;7.93;5.03;;;29.80;79.60;;;;;;7332989;32;20243;-58
2023/06/10 10:19:30;;;;;;;8.65;4.62;;;30.00;83.60;;;;;;7331087;32;20120;-58
2023/06/10 10:23:39;;;;;;;8.50;5.35;;;30.00;83.10;;;;;;7342189;32;20904;-59
2023/06/10 10:27:50;;;;;;;6.30;4.80;;;30.60;83.60;;;;;;7341689;32;20442;-58
2023/06/10 10:31:55;;;;;;;6.37;4.70;;;31.00;76.80;;;;;;7343140;32;20198;-58
2023/06/10 10:35:58;;;;;;;5.85;4.60;;;31.30;76.10;;;;;;7344071;32;20264;-58
2023/06/10 10:40:01;;;;;;;5.65;4.90;;;31.70;75.50;;;;;;7338349;32;20168;-58
2023/06/10 10:44:07;;;;;;;7.65;4.87;;;31.90;79.10;;;;;;7347344;32;20768;-57
2023/06/10 10:48:12;;;;;;;;;;;32.30;74.50;;;;;;7346605;32;20111;-59
2023/06/10 10:52:14;;;;;;;6.95;4.50;;;32.10;71.00;;;;;;7348737;32;20031;-58
2023/06/10 10:56:18;;;;;;;7.65;5.00;;;31.70;73.40;;;;;;7351827;32;20490;-58
2023/06/10 11:00:34;;;;;;;6.75;4.43;;;31.00;70.70;;;;;;7353896;32;20122;-59
2023/06/10 11:04:36;;;;;;;11.80;5.18;;;31.50;72.10;;;;;;7350138;32;20149;-58
2023/06/10 11:08:41;;;;;;;9.55;4.53;;;31.20;72.70;;;;;;7354177;32;20722;-58
2023/06/10 11:12:46;;;;;;;8.60;4.57;;;31.70;73.80;;;;;;7348769;32;20186;-59
2023/06/10 11:16:48;;;;;;;7.15;6.20;;;31.60;67.20;;;;;;7345457;32;20193;-57
2023/06/10 11:20:50;;;;;;;7.50;4.70;;;31.10;68.50;;;;;;7345863;32;20148;-59
2023/06/10 11:24:52;;;;;;;8.88;4.50;;;31.00;68.50;;;;;;7348634;32;20631;-56
2023/06/10 11:28:54;;;;;;;5.18;4.68;;;31.30;69.90;;;;;;7345000;32;20271;-57
2023/06/10 11:32:57;;;;;;;7.12;4.68;;;31.30;63.10;;;;;;7346557;32;20111;-59
2023/06/10 11:37:03;;;;;;;9.60;5.07;;;30.80;65.30;;;;;;7350669;32;20182;-57
2023/06/10 11:41:05;;;;;;;6.80;4.45;;;31.10;67.40;;;;;;7347724;32;20150;-59
2023/06/10 11:45:08;;;;;;;8.00;4.78;;;31.20;64.90;;;;;;7348873;32;20928;-58
2023/06/10 11:49:11;;;;;;;5.78;4.57;;;31.10;64.10;;;;;;7344171;32;20318;-58
2023/06/10 11:53:14;;;;;;;9.07;4.68;;;31.10;61.20;;;;;;7349921;32;20190;-58
2023/06/10 11:57:16;;;;;;;6.80;4.65;;;31.70;61.70;;;;;;7344802;32;20171;-58
2023/06/10 12:01:22;;;;;;;6.50;4.90;;;31.90;63.00;;;;;;7351703;32;20682;-58
2023/06/10 12:06:00;;;;;;;8.75;4.60;;;32.10;63.00;;;;;;7318636;32;20108;-57
2023/06/10 12:10:01;;;;;;;7.37;4.60;;;32.70;64.50;;;;;;7320629;32;20271;-58
2023/06/10 12:14:56;;;;;;;9.85;4.68;;;31.70;61.40;;;;;;7313581;32;20175;-58
2023/06/10 12:19:05;;;;;;;9.15;4.78;;;31.10;64.00;;;;;;7318140;32;20256;-58
2023/06/10 12:23:11;;;;;;;9.43;5.55;;;31.90;62.10;;;;;;7332445;32;20125;-57
2023/06/10 12:27:13;;;;;;;6.07;4.97;;;31.90;64.40;;;;;;7346369;32;20741;-62
2023/06/10 12:31:15;;;;;;;5.57;4.62;;;33.00;62.90;;;;;;7343669;32;20745;-58
2023/06/10 12:35:21;;;;;;;8.23;4.72;;;32.70;58.20;;;;;;7351315;32;20099;-57
2023/06/10 12:39:23;;;;;;;7.30;4.55;;;32.60;59.20;;;;;;7342710;32;20582;-57
2023/06/10 12:43:25;;;;;;;5.47;4.87;;;31.60;61.10;;;;;;7349945;32;20134;-58
2023/06/10 12:47:35;;;;;;;8.35;5.32;;;31.00;62.70;;;;;;7345270;32;20137;-59
2023/06/10 12:51:37;;;;;;;5.68;5.18;;;30.80;63.30;;;;;;7342139;32;20107;-58
2023/06/10 12:55:39;;;;;;;12.25;5.32;;;30.40;64.70;;;;;;7344443;32;20234;-59
2023/06/10 12:59:42;;;;;;;13.32;5.25;;;31.30;65.20;;;;;;7345434;32;20237;-58
2023/06/10 13:03:44;;;;;;;8.55;4.75;;;32.10;62.10;;;;;;7346968;32;21306;-58
2023/06/10 13:07:46;;;;;;;7.60;4.70;;;32.00;61.20;;;;;;7343821;32;20218;-60
2023/06/10 13:11:47;;;;;;;8.63;5.15;;;32.00;63.40;;;;;;7344960;32;20638;-58
2023/06/10 13:15:49;;;;;;;17.02;5.18;;;32.30;63.20;;;;;;7345974;32;20119;-59
2023/06/10 13:19:51;;;;;;;9.38;4.90;;;32.00;60.10;;;;;;7343229;32;20214;-59
2023/06/10 13:23:53;;;;;;;6.65;4.62;;;32.00;62.10;;;;;;7343115;32;20102;-58
2023/06/10 13:27:55;;;;;;;9.50;4.57;;;32.40;59.30;;;;;;7339242;32;20100;-58
2023/06/10 13:31:57;;;;;;;9.73;5.22;;;32.60;60.00;;;;;;7343170;32;20234;-58
2023/06/10 13:35:59;;;;;;;8.65;4.53;;;32.10;58.60;;;;;;7340501;32;20551;-59
2023/06/10 13:40:02;;;;;;;7.68;4.65;;;31.60;63.10;;;;;;7339325;32;20285;-58
2023/06/10 13:44:03;;;;;;;7.68;4.45;;;32.10;60.00;;;;;;7344764;32;20154;-56
2023/06/10 13:48:05;;;;;;;6.85;4.50;;;32.50;59.90;;;;;;7335836;32;20203;-57
2023/06/10 13:52:07;;;;;;;6.22;4.62;;;33.00;58.60;;;;;;7352488;32;20143;-58
2023/06/10 13:56:09;;;;;;;7.70;4.80;;;32.50;58.40;;;;;;7347912;32;20107;-60
2023/06/10 14:00:11;;;;;;;6.05;4.93;;;31.70;59.90;;;;;;7344641;32;20123;-59
2023/06/10 14:04:13;;;;;;;6.35;4.60;;;31.00;59.20;;;;;;7349500;32;20561;-58
2023/06/10 14:08:15;;;;;;;11.12;4.95;;;30.60;62.50;;;;;;7341269;32;20111;-59
2023/06/10 14:12:17;;;;;;;9.52;5.25;;;30.10;63.10;;;;;;7347797;32;20277;-58
2023/06/10 14:16:19;;;;;;;8.57;5.05;;;30.10;64.90;;;;;;7347075;32;20672;-59
2023/06/10 14:20:21;;;;;;;6.53;5.57;;;30.80;63.40;;;;;;7352126;32;20788;-59
2023/06/10 14:24:22;;;;;;;5.93;5.37;;;30.60;63.20;;;;;;7344312;32;20261;-59
2023/06/10 14:28:26;;;;;;;7.25;4.75;;;29.70;62.30;;;;;;7349803;32;20649;-56
2023/06/10 14:32:27;;;;;;;7.62;5.70;;;28.70;65.00;;;;;;7344181;32;20178;-58
2023/06/10 14:36:29;;;;;;;7.82;5.68;;;28.60;67.60;;;;;;7347606;32;20130;-58
2023/06/10 14:40:31;;;;;;;7.70;5.47;;;28.50;69.20;;;;;;7344777;32;20112;-57
2023/06/10 14:44:33;;;;;;;10.45;5.28;;;28.60;69.70;;;;;;7345880;32;20569;-57
2023/06/10 14:48:35;;;;;;;6.70;5.00;;;28.50;67.60;;;;;;7342669;32;20103;-56
2023/06/10 14:52:37;;;;;;;9.05;5.70;;;28.80;68.90;;;;;;7346020;32;20263;-57
2023/06/10 14:56:39;;;;;;;6.72;5.03;;;30.00;65.00;;;;;;7343798;32;20540;-58
2023/06/10 15:00:41;;;;;;;9.82;4.72;;;30.60;63.80;;;;;;7348166;32;20103;-58
2023/06/10 15:04:43;;;;;;;10.45;5.03;;;31.70;58.50;;;;;;7347997;32;20116;-56
2023/06/10 15:08:45;;;;;;;4.80;4.35;;;31.30;60.70;;;;;;7346737;32;20576;-56
2023/06/10 15:12:47;;;;;;;6.87;4.72;;;31.20;62.50;;;;;;7346315;32;20122;-58
2023/06/10 15:16:48;;;;;;;6.65;4.70;;;30.80;59.90;;;;;;7336083;32;20293;-58
2023/06/10 15:20:50;;;;;;;7.32;4.60;;;30.50;62.30;;;;;;7343041;32;22428;-57
2023/06/10 15:24:52;;;;;;;9.43;5.07;;;30.60;63.70;;;;;;7345076;32;20957;-57
2023/06/10 15:28:53;;;;;;;8.13;4.53;;;29.90;64.70;;;;;;7350032;32;20174;-57
2023/06/10 15:32:55;;;;;;;5.93;4.68;;;29.60;64.30;;;;;;7339374;32;20445;-56
2023/06/10 15:36:57;;;;;;;6.10;4.62;;;29.40;67.20;;;;;;7342600;32;20103;-57
2023/06/10 15:40:59;;;;;;;9.63;5.50;;;29.20;65.90;;;;;;7340769;32;20210;-61
2023/06/10 15:45:01;;;;;;;7.00;5.18;;;28.60;64.00;;;;;;7340661;32;20194;-56
2023/06/10 15:49:03;;;;;;;10.35;4.97;;;28.50;67.90;;;;;;7339303;32;20238;-57
2023/06/10 15:53:05;;;;;;;6.80;5.00;;;28.40;66.90;;;;;;7347637;32;20173;-58
2023/06/10 15:57:08;;;;;;;7.15;4.87;;;28.40;66.60;;;;;;7348138;32;20112;-59
2023/06/10 16:01:11;;;;;;;7.10;5.05;;;28.30;66.60;;;;;;7352328;32;20225;-58
2023/06/10 16:05:12;;;;;;;10.38;5.32;;;28.50;67.80;;;;;;7351208;32;20229;-58
2023/06/10 16:09:14;;;;;;;6.70;4.90;;;28.50;66.20;;;;;;7351656;32;20133;-57
2023/06/10 16:13:16;;;;;;;7.62;4.87;;;28.40;67.10;;;;;;7349302;32;20114;-58
2023/06/10 16:17:18;;;;;;;5.57;4.55;;;28.20;66.70;;;;;;7341825;32;20232;-59
2023/06/10 16:21:20;;;;;;;8.52;4.82;;;28.20;66.80;;;;;;7353611;32;20211;-58
2023/06/10 16:25:22;;;;;;;5.78;4.55;;;28.20;66.10;;;;;;7342684;32;20201;-58
2023/06/10 16:29:25;;;;;;;6.35;5.07;;;28.30;66.50;;;;;;7348549;32;20170;-58
2023/06/10 16:33:27;;;;;;;5.45;4.65;;;28.20;68.10;;;;;;7354017;32;20569;-56
2023/06/10 16:37:28;;;;;;;6.55;4.70;;;28.10;66.10;;;;;;7343941;32;20134;-59
2023/06/10 16:41:30;;;;;;;6.05;4.43;;;28.00;67.70;;;;;;7349273;32;20426;-58
2023/06/10 16:45:32;;;;;;;7.62;4.60;;;28.10;68.10;;;;;;7345818;32;20234;-61
2023/06/10 16:49:36;;;;;;;9.07;4.85;;;27.90;67.90;;;;;;7347630;32;20107;-61
2023/06/10 16:53:37;;;;;;;12.93;9.55;;;27.90;68.60;;;;;;7344735;32;20246;-57
2023/06/10 16:57:39;;;;;;;6.05;4.93;;;27.90;69.70;;;;;;7350216;32;20107;-58
2023/06/10 17:01:41;;;;;;;5.90;4.87;;;27.80;70.30;;;;;;7345562;32;20269;-57
2023/06/10 17:05:43;;;;;;;7.75;4.90;;;27.80;71.60;;;;;;7349160;32;20544;-57
2023/06/10 17:09:44;;;;;;;7.37;4.53;;;27.70;69.70;;;;;;7350306;32;20721;-58
2023/06/10 17:13:46;;;;;;;6.62;5.70;;;27.60;69.90;;;;;;7349190;32;20168;-57
2023/06/10 17:17:48;;;;;;;6.72;4.57;;;27.50;70.50;;;;;;7350616;32;20517;-58
2023/06/10 17:21:50;;;;;;;8.82;4.53;;;27.40;70.20;;;;;;7343436;32;20230;-57
2023/06/10 17:25:52;;;;;;;5.43;4.30;;;27.40;73.00;;;;;;7338903;32;20255;-57
2023/06/10 17:29:54;;;;;;;6.15;4.87;;;27.30;71.90;;;;;;7344649;32;20164;-57
2023/06/10 17:33:55;;;;;;;4.90;4.30;;;27.30;72.50;;;;;;7341436;32;20126;-58
2023/06/10 17:37:57;;;;;;;7.43;4.22;;;27.30;72.80;;;;;;7339553;32;20309;-56
2023/06/10 17:41:59;;;;;;;8.85;4.55;;;27.30;73.70;;;;;;7342089;32;20321;-56
2023/06/10 17:46:02;;;;;;;6.45;5.12;;;27.20;73.70;;;;;;7343765;32;20096;-59
2023/06/10 17:50:04;;;;;;;6.87;4.65;;;27.00;73.10;;;;;;7349298;32;20121;-57
2023/06/10 17:54:07;;;;;;;5.90;4.25;;;27.00;73.80;;;;;;7346731;32;20119;-57
2023/06/10 17:58:09;;;;;;;8.23;5.00;;;26.90;74.80;;;;;;7346209;32;22436;-59
2023/06/10 18:02:11;;;;;;;10.68;4.82;;;26.90;76.20;;;;;;7349576;32;20222;-56
2023/06/10 18:06:13;;;;;;;7.97;4.78;;;26.80;75.50;;;;;;7349763;32;20275;-56
2023/06/10 18:10:15;;;;;;;9.45;4.50;;;26.70;76.90;;;;;;7347212;32;20139;-57
2023/06/10 18:14:16;;;;;;;5.95;4.87;;;26.70;76.60;;;;;;7344146;32;20710;-57
2023/06/10 18:18:18;;;;;;;6.90;5.00;;;26.50;77.50;;;;;;7347437;32;20108;-57
2023/06/10 18:22:20;;;;;;;7.12;4.45;;;26.40;78.00;;;;;;7351969;32;20212;-58
2023/06/10 18:26:22;;;;;;;8.82;4.80;;;26.30;78.80;;;;;;7350614;32;20232;-58
2023/06/10 18:30:23;;;;;;;6.53;4.57;;;26.30;79.00;;;;;;7347292;32;20611;-56
2023/06/10 18:34:25;;;;;;;6.55;4.68;;;26.20;79.80;;;;;;7345658;32;20166;-57
2023/06/10 18:38:30;;;;;;;9.93;5.25;;;26.10;79.70;;;;;;7348679;32;20351;-57
2023/06/10 18:42:32;;;;;;;8.88;4.68;;;26.00;78.90;;;;;;7337698;32;20157;-57
2023/06/10 18:46:34;;;;;;;7.65;4.75;;;25.90;79.70;;;;;;7347816;32;20133;-56
2023/06/10 18:50:36;;;;;;;8.50;4.50;;;25.90;80.50;;;;;;7344108;32;21293;-57
2023/06/10 18:54:37;;;;;;;7.35;4.87;;;25.80;80.20;;;;;;7347582;32;20146;-58
2023/06/10 18:58:39;;;;;;;7.68;5.03;;;25.80;80.20;;;;;;7348477;32;20126;-58
2023/06/10 19:02:41;;;;;;;6.10;4.60;;;25.60;82.10;;;;;;7345073;32;20102;-58
2023/06/10 19:06:43;;;;;;;7.95;4.87;;;25.60;82.50;;;;;;7344782;32;20145;-58
2023/06/10 19:10:45;;;;;;;7.68;5.28;;;25.40;84.00;;;;;;7346599;32;20152;-56
2023/06/10 19:14:46;;;;;;;6.72;5.25;;;25.30;85.00;;;;;;7351481;32;20103;-57
2023/06/10 19:18:48;;;;;;;7.75;5.18;;;25.20;86.50;;;;;;7341481;32;20181;-58
2023/06/10 19:22:50;;;;;;;10.40;5.80;;;25.00;87.80;;;;;;7339142;32;20274;-57
2023/06/10 19:26:52;;;;;;;7.65;5.50;;;25.10;87.30;;;;;;7347720;32;20280;-59
2023/06/10 19:30:53;;;;;;;9.10;5.72;;;25.00;87.90;;;;;;7344022;32;20252;-60
2023/06/10 19:34:55;;;;;;;5.93;5.10;;;24.90;89.00;;;;;;7342090;32;20222;-62
2023/06/10 19:38:57;;;;;;;7.90;5.28;;;24.80;89.40;;;;;;7343658;32;20256;-57
2023/06/10 19:42:59;;;;;;;8.52;5.82;;;24.70;89.70;;;;;;7344768;32;20206;-56
2023/06/10 19:47:01;;;;;;;7.28;5.30;;;24.60;90.50;;;;;;7346199;32;20213;-56
2023/06/10 19:51:03;;;;;;;10.45;5.47;;;24.40;91.40;;;;;;7347915;32;20234;-57
2023/06/10 19:55:05;;;;;;;8.60;5.22;;;24.30;91.60;;;;;;7342949;32;20107;-56
2023/06/10 19:59:07;;;;;;;8.18;5.28;;;24.20;92.00;;;;;;7343292;32;20726;-56
2023/06/10 20:03:09;;;;;;;8.57;4.95;;;24.10;92.60;;;;;;7341776;32;20240;-56
2023/06/10 20:07:11;;;;;;;6.05;5.25;;;23.90;93.50;;;;;;7348087;32;20362;-55
2023/06/10 20:11:13;;;;;;;6.60;5.20;;;23.90;93.50;;;;;;7343102;32;20504;-56
2023/06/10 20:15:15;;;;;;;8.70;4.68;;;23.80;94.10;;;;;;7349202;32;20134;-56
2023/06/10 20:19:17;;;;;;;8.57;5.80;;;23.70;95.00;;;;;;7349902;32;20620;-56
2023/06/10 20:23:18;;;;;;;9.65;5.45;;;23.50;95.90;;;;;;7351497;32;20170;-57
2023/06/10 20:27:20;;;;;;;7.37;5.37;;;23.30;96.60;;;;;;7343880;32;20603;-56
2023/06/10 20:31:25;;;;;;;6.70;5.65;;;23.20;97.60;;;;;;7345556;32;20111;-56
2023/06/10 20:35:27;;;;;;;8.40;5.12;;;23.10;99.10;;;;;;7341890;32;20555;-55
2023/06/10 20:39:29;;;;;;;7.20;5.70;;;22.90;99.90;;;;;;7341437;32;20148;-57
2023/06/10 20:43:31;;;;;;;7.37;5.43;;;22.70;99.90;;;;;;7343181;32;20243;-55
2023/06/10 20:47:33;;;;;;;6.68;5.37;;;22.60;99.90;;;;;;7348817;32;20091;-55
2023/06/10 20:51:35;;;;;;;7.62;6.15;;;22.50;99.90;;;;;;7349383;32;20119;-55
2023/06/10 20:55:37;;;;;;;8.82;5.47;;;22.40;99.90;;;;;;7340093;32;20163;-56
2023/06/10 20:59:39;;;;;;;8.77;6.15;;;22.20;99.90;;;;;;7345501;32;20127;-56
2023/06/10 21:03:40;;;;;;;11.88;5.90;;;22.10;99.90;;;;;;7351281;32;20202;-56